sensor_id;sensor_type;location;lat;lon;timestamp;pressure;altitude;pressure_sealevel;temperature;humidity
58698;BME280;44475;53.206;-6.106;2023-02-15T00:01:12;101914.63;;;23.53;46.87
58698;BME280;44475;53.206;-6.106;2023-02-15T00:03:38;101915.59;;;23.52;46.92
58698;BME280;44475;53.206;-6.106;2023-02-15T00:06:05;101902.91;;;23.51;46.99
58698;BME280;44475;53.206;-6.106;2023-02-15T00:08:32;101915.94;;;23.47;47.29
58698;BME280;44475;53.206;-6.106;2023-02-15T00:11:09;101912.09;;;23.49;47.10
58698;BME280;44475;53.206;-6.106;2023-02-15T00:13:35;101907.31;;;23.40;47.34
58698;BME280;44475;53.206;-6.106;2023-02-15T00:16:07;101896.47;;;23.52;47.20
58698;BME280;44475;53.206;-6.106;2023-02-15T00:18:34;101908.28;;;23.52;47.09
58698;BME280;44475;53.206;-6.106;2023-02-15T00:21:04;101896.13;;;23.56;47.06
58698;BME280;44475;53.206;-6.106;2023-02-15T00:23:31;101895.50;;;23.66;46.83
58698;BME280;44475;53.206;-6.106;2023-02-15T00:26:11;101888.91;;;23.55;46.57
58698;BME280;44475;53.206;-6.106;2023-02-15T00:28:38;101883.66;;;23.52;47.05
58698;BME280;44475;53.206;-6.106;2023-02-15T00:31:06;101887.84;;;23.45;46.98
58698;BME280;44475;53.206;-6.106;2023-02-15T00:33:35;101889.78;;;23.56;46.82
58698;BME280;44475;53.206;-6.106;2023-02-15T00:36:02;101881.69;;;23.54;46.76
58698;BME280;44475;53.206;-6.106;2023-02-15T00:38:30;101860.13;;;23.49;46.97
58698;BME280;44475;53.206;-6.106;2023-02-15T00:41:01;101871.84;;;23.52;47.28
58698;BME280;44475;53.206;-6.106;2023-02-15T00:43:29;101867.34;;;23.51;47.07
58698;BME280;44475;53.206;-6.106;2023-02-15T00:45:56;101852.03;;;23.48;46.97
58698;BME280;44475;53.206;-6.106;2023-02-15T00:48:23;101845.59;;;23.49;46.95
58698;BME280;44475;53.206;-6.106;2023-02-15T00:50:57;101861.66;;;23.54;47.08
58698;BME280;44475;53.206;-6.106;2023-02-15T00:53:25;101849.09;;;23.38;47.48
58698;BME280;44475;53.206;-6.106;2023-02-15T00:55:52;101850.63;;;23.42;47.46
58698;BME280;44475;53.206;-6.106;2023-02-15T00:58:18;101843.97;;;23.46;47.41
58698;BME280;44475;53.206;-6.106;2023-02-15T01:00:46;101849.22;;;23.36;47.37
58698;BME280;44475;53.206;-6.106;2023-02-15T01:03:14;101841.69;;;23.27;47.43
58698;BME280;44475;53.206;-6.106;2023-02-15T01:05:42;101833.69;;;23.37;47.20
58698;BME280;44475;53.206;-6.106;2023-02-15T01:08:08;101832.88;;;23.48;47.16
58698;BME280;44475;53.206;-6.106;2023-02-15T01:10:37;101832.19;;;23.33;47.27
58698;BME280;44475;53.206;-6.106;2023-02-15T01:13:04;101816.94;;;23.42;47.21
58698;BME280;44475;53.206;-6.106;2023-02-15T01:15:30;101822.09;;;23.46;47.05
58698;BME280;44475;53.206;-6.106;2023-02-15T01:17:57;101816.19;;;23.39;47.21
58698;BME280;44475;53.206;-6.106;2023-02-15T01:20:26;101808.16;;;23.49;46.90
58698;BME280;44475;53.206;-6.106;2023-02-15T01:22:53;101792.66;;;23.37;47.28
58698;BME280;44475;53.206;-6.106;2023-02-15T01:25:21;101785.75;;;23.44;47.16
58698;BME280;44475;53.206;-6.106;2023-02-15T01:27:48;101784.88;;;23.44;47.03
58698;BME280;44475;53.206;-6.106;2023-02-15T01:30:15;101780.03;;;23.47;46.97
58698;BME280;44475;53.206;-6.106;2023-02-15T01:32:42;101769.91;;;23.36;47.29
58698;BME280;44475;53.206;-6.106;2023-02-15T01:35:09;101772.91;;;23.33;47.52
58698;BME280;44475;53.206;-6.106;2023-02-15T01:37:36;101763.34;;;23.39;46.97
58698;BME280;44475;53.206;-6.106;2023-02-15T01:40:07;101766.44;;;23.34;47.42
58698;BME280;44475;53.206;-6.106;2023-02-15T01:42:34;101766.88;;;23.28;47.34
58698;BME280;44475;53.206;-6.106;2023-02-15T01:45:18;101770.97;;;23.22;47.70
58698;BME280;44475;53.206;-6.106;2023-02-15T01:50:37;101761.22;;;23.18;47.49
58698;BME280;44475;53.206;-6.106;2023-02-15T01:53:34;101765.31;;;23.37;47.42
58698;BME280;44475;53.206;-6.106;2023-02-15T01:56:16;101765.91;;;23.29;47.53
58698;BME280;44475;53.206;-6.106;2023-02-15T01:58:48;101751.47;;;23.27;47.51
58698;BME280;44475;53.206;-6.106;2023-02-15T02:01:16;101747.44;;;23.19;47.71
58698;BME280;44475;53.206;-6.106;2023-02-15T02:06:38;101749.03;;;23.35;47.22
58698;BME280;44475;53.206;-6.106;2023-02-15T02:09:06;101734.78;;;23.05;48.03
58698;BME280;44475;53.206;-6.106;2023-02-15T02:11:33;101721.44;;;23.14;48.16
58698;BME280;44475;53.206;-6.106;2023-02-15T02:14:00;101709.47;;;23.28;47.65
58698;BME280;44475;53.206;-6.106;2023-02-15T02:16:40;101705.56;;;23.19;47.62
58698;BME280;44475;53.206;-6.106;2023-02-15T02:35:22;101653.63;;;23.19;47.88
58698;BME280;44475;53.206;-6.106;2023-02-15T02:43:15;101653.09;;;23.14;47.72
58698;BME280;44475;53.206;-6.106;2023-02-15T02:48:34;101652.22;;;23.38;47.28
58698;BME280;44475;53.206;-6.106;2023-02-15T02:51:00;101664.72;;;23.29;47.37
58698;BME280;44475;53.206;-6.106;2023-02-15T02:53:29;101646.56;;;23.28;47.58
58698;BME280;44475;53.206;-6.106;2023-02-15T02:56:04;101631.75;;;23.19;47.72
58698;BME280;44475;53.206;-6.106;2023-02-15T02:58:39;101621.84;;;23.29;47.66
58698;BME280;44475;53.206;-6.106;2023-02-15T03:01:20;101607.13;;;23.19;47.91
58698;BME280;44475;53.206;-6.106;2023-02-15T03:03:51;101598.44;;;23.14;47.66
58698;BME280;44475;53.206;-6.106;2023-02-15T03:06:24;101600.19;;;23.26;47.38
58698;BME280;44475;53.206;-6.106;2023-02-15T03:08:58;101608.38;;;23.15;47.59
58698;BME280;44475;53.206;-6.106;2023-02-15T03:11:28;101592.00;;;23.26;47.71
58698;BME280;44475;53.206;-6.106;2023-02-15T03:13:55;101574.22;;;23.21;47.49
58698;BME280;44475;53.206;-6.106;2023-02-15T03:16:23;101577.72;;;23.23;47.51
58698;BME280;44475;53.206;-6.106;2023-02-15T03:18:55;101581.97;;;23.02;48.00
58698;BME280;44475;53.206;-6.106;2023-02-15T03:24:36;101562.13;;;23.12;47.72
58698;BME280;44475;53.206;-6.106;2023-02-15T03:27:09;101565.84;;;23.11;47.77
58698;BME280;44475;53.206;-6.106;2023-02-15T03:29:38;101573.22;;;23.22;47.79
58698;BME280;44475;53.206;-6.106;2023-02-15T03:32:08;101567.66;;;23.23;47.81
58698;BME280;44475;53.206;-6.106;2023-02-15T03:34:36;101560.41;;;23.11;47.79
58698;BME280;44475;53.206;-6.106;2023-02-15T03:39:59;101560.34;;;22.99;48.18
58698;BME280;44475;53.206;-6.106;2023-02-15T03:42:51;101556.03;;;23.08;47.72
58698;BME280;44475;53.206;-6.106;2023-02-15T03:45:25;101551.91;;;23.02;48.07
58698;BME280;44475;53.206;-6.106;2023-02-15T03:47:56;101550.09;;;23.14;48.00
58698;BME280;44475;53.206;-6.106;2023-02-15T03:50:27;101550.72;;;23.18;47.91
58698;BME280;44475;53.206;-6.106;2023-02-15T03:53:16;101535.41;;;23.15;47.71
58698;BME280;44475;53.206;-6.106;2023-02-15T03:55:48;101539.13;;;23.03;48.29
58698;BME280;44475;53.206;-6.106;2023-02-15T03:58:14;101530.59;;;22.83;48.78
58698;BME280;44475;53.206;-6.106;2023-02-15T04:01:03;101534.38;;;22.93;48.24
58698;BME280;44475;53.206;-6.106;2023-02-15T04:03:57;101519.63;;;23.07;48.14
58698;BME280;44475;53.206;-6.106;2023-02-15T04:06:25;101536.97;;;22.95;48.48
58698;BME280;44475;53.206;-6.106;2023-02-15T04:08:51;101530.09;;;23.14;47.74
58698;BME280;44475;53.206;-6.106;2023-02-15T04:11:36;101551.53;;;23.07;47.85
58698;BME280;44475;53.206;-6.106;2023-02-15T04:14:02;101537.00;;;23.06;48.05
58698;BME280;44475;53.206;-6.106;2023-02-15T04:16:49;101531.25;;;22.98;48.19
58698;BME280;44475;53.206;-6.106;2023-02-15T04:19:15;101535.75;;;22.99;48.25
58698;BME280;44475;53.206;-6.106;2023-02-15T04:22:00;101534.38;;;23.05;47.96
58698;BME280;44475;53.206;-6.106;2023-02-15T04:24:45;101537.59;;;22.98;48.16
58698;BME280;44475;53.206;-6.106;2023-02-15T04:27:30;101534.81;;;22.87;48.33
58698;BME280;44475;53.206;-6.106;2023-02-15T04:29:56;101531.22;;;22.86;48.17
58698;BME280;44475;53.206;-6.106;2023-02-15T04:32:22;101525.56;;;23.01;47.98
58698;BME280;44475;53.206;-6.106;2023-02-15T04:34:49;101518.47;;;22.98;48.12
58698;BME280;44475;53.206;-6.106;2023-02-15T04:37:15;101510.50;;;22.95;48.15
58698;BME280;44475;53.206;-6.106;2023-02-15T04:39:41;101499.47;;;22.97;48.09
58698;BME280;44475;53.206;-6.106;2023-02-15T04:42:08;101497.47;;;22.99;48.13
58698;BME280;44475;53.206;-6.106;2023-02-15T04:44:34;101490.13;;;22.88;48.51
58698;BME280;44475;53.206;-6.106;2023-02-15T04:47:00;101487.25;;;22.89;48.52
58698;BME280;44475;53.206;-6.106;2023-02-15T04:49:26;101475.94;;;22.83;48.36
58698;BME280;44475;53.206;-6.106;2023-02-15T04:51:52;101486.56;;;22.99;48.43
58698;BME280;44475;53.206;-6.106;2023-02-15T04:54:19;101479.81;;;22.92;48.56
58698;BME280;44475;53.206;-6.106;2023-02-15T04:56:45;101489.41;;;22.97;48.51
58698;BME280;44475;53.206;-6.106;2023-02-15T04:59:12;101487.91;;;23.05;48.23
58698;BME280;44475;53.206;-6.106;2023-02-15T05:01:38;101488.22;;;23.13;48.03
58698;BME280;44475;53.206;-6.106;2023-02-15T05:04:04;101492.34;;;22.94;48.50
58698;BME280;44475;53.206;-6.106;2023-02-15T05:06:31;101499.72;;;22.94;48.50
58698;BME280;44475;53.206;-6.106;2023-02-15T05:08:57;101469.66;;;22.94;48.18
58698;BME280;44475;53.206;-6.106;2023-02-15T05:11:25;101474.38;;;22.92;48.45
58698;BME280;44475;53.206;-6.106;2023-02-15T05:13:52;101470.50;;;22.94;48.49
58698;BME280;44475;53.206;-6.106;2023-02-15T05:16:18;101463.47;;;23.03;48.01
58698;BME280;44475;53.206;-6.106;2023-02-15T05:18:44;101442.72;;;23.01;47.91
58698;BME280;44475;53.206;-6.106;2023-02-15T05:21:10;101443.72;;;23.11;47.85
58698;BME280;44475;53.206;-6.106;2023-02-15T05:23:37;101457.59;;;22.96;47.89
58698;BME280;44475;53.206;-6.106;2023-02-15T05:26:03;101458.44;;;22.85;48.62
58698;BME280;44475;53.206;-6.106;2023-02-15T05:28:48;101480.59;;;22.94;48.05
58698;BME280;44475;53.206;-6.106;2023-02-15T05:31:17;101500.72;;;22.79;48.33
58698;BME280;44475;53.206;-6.106;2023-02-15T05:33:44;101528.53;;;22.98;48.13
58698;BME280;44475;53.206;-6.106;2023-02-15T05:36:11;101537.50;;;23.00;48.39
58698;BME280;44475;53.206;-6.106;2023-02-15T05:38:38;101528.03;;;22.93;48.23
58698;BME280;44475;53.206;-6.106;2023-02-15T05:41:05;101534.16;;;22.83;48.33
58698;BME280;44475;53.206;-6.106;2023-02-15T05:43:32;101542.56;;;22.93;48.36
58698;BME280;44475;53.206;-6.106;2023-02-15T05:45:58;101548.16;;;22.92;48.18
58698;BME280;44475;53.206;-6.106;2023-02-15T05:48:26;101557.09;;;22.94;48.38
58698;BME280;44475;53.206;-6.106;2023-02-15T05:51:07;101567.19;;;23.05;47.97
58698;BME280;44475;53.206;-6.106;2023-02-15T05:53:36;101576.75;;;22.99;48.00
58698;BME280;44475;53.206;-6.106;2023-02-15T05:56:03;101579.34;;;23.01;48.26
58698;BME280;44475;53.206;-6.106;2023-02-15T05:58:35;101595.22;;;22.95;48.11
58698;BME280;44475;53.206;-6.106;2023-02-15T06:01:13;101597.06;;;22.95;48.17
58698;BME280;44475;53.206;-6.106;2023-02-15T06:03:40;101605.59;;;23.03;47.98
58698;BME280;44475;53.206;-6.106;2023-02-15T06:06:07;101605.63;;;22.90;48.27
58698;BME280;44475;53.206;-6.106;2023-02-15T06:08:35;101602.53;;;22.95;48.03
58698;BME280;44475;53.206;-6.106;2023-02-15T06:11:01;101605.75;;;22.88;48.26
58698;BME280;44475;53.206;-6.106;2023-02-15T06:13:28;101606.81;;;22.99;48.02
58698;BME280;44475;53.206;-6.106;2023-02-15T06:15:54;101614.50;;;22.94;48.36
58698;BME280;44475;53.206;-6.106;2023-02-15T06:18:20;101616.09;;;22.96;47.97
58698;BME280;44475;53.206;-6.106;2023-02-15T06:20:47;101607.91;;;22.96;48.22
58698;BME280;44475;53.206;-6.106;2023-02-15T06:23:14;101596.84;;;22.98;47.94
58698;BME280;44475;53.206;-6.106;2023-02-15T06:25:41;101599.97;;;22.80;48.25
58698;BME280;44475;53.206;-6.106;2023-02-15T06:28:07;101601.50;;;22.84;48.36
58698;BME280;44475;53.206;-6.106;2023-02-15T06:30:33;101612.19;;;22.87;48.19
58698;BME280;44475;53.206;-6.106;2023-02-15T06:33:00;101612.84;;;22.78;48.28
58698;BME280;44475;53.206;-6.106;2023-02-15T06:35:26;101610.13;;;22.91;48.12
58698;BME280;44475;53.206;-6.106;2023-02-15T06:37:53;101612.16;;;23.01;47.94
58698;BME280;44475;53.206;-6.106;2023-02-15T06:40:19;101612.50;;;22.96;47.84
58698;BME280;44475;53.206;-6.106;2023-02-15T06:42:45;101613.94;;;22.88;48.14
58698;BME280;44475;53.206;-6.106;2023-02-15T06:45:12;101606.50;;;22.91;47.98
58698;BME280;44475;53.206;-6.106;2023-02-15T06:47:38;101602.97;;;23.02;47.52
58698;BME280;44475;53.206;-6.106;2023-02-15T06:50:06;101605.69;;;23.02;47.92
58698;BME280;44475;53.206;-6.106;2023-02-15T06:52:33;101602.25;;;22.86;47.83
58698;BME280;44475;53.206;-6.106;2023-02-15T06:54:59;101608.69;;;22.85;48.06
58698;BME280;44475;53.206;-6.106;2023-02-15T06:57:25;101598.94;;;22.94;48.16
58698;BME280;44475;53.206;-6.106;2023-02-15T06:59:52;101600.81;;;22.94;47.96
58698;BME280;44475;53.206;-6.106;2023-02-15T07:02:18;101592.41;;;22.84;48.11
58698;BME280;44475;53.206;-6.106;2023-02-15T07:04:46;101607.50;;;22.89;47.99
58698;BME280;44475;53.206;-6.106;2023-02-15T07:07:13;101609.34;;;22.76;48.12
58698;BME280;44475;53.206;-6.106;2023-02-15T07:09:39;101608.03;;;22.82;48.19
58698;BME280;44475;53.206;-6.106;2023-02-15T07:12:06;101604.66;;;22.78;48.12
58698;BME280;44475;53.206;-6.106;2023-02-15T07:14:51;101601.91;;;22.91;48.03
58698;BME280;44475;53.206;-6.106;2023-02-15T07:17:17;101607.41;;;22.78;48.18
58698;BME280;44475;53.206;-6.106;2023-02-15T07:19:44;101618.91;;;22.70;48.16
58698;BME280;44475;53.206;-6.106;2023-02-15T07:22:10;101610.03;;;22.79;48.25
58698;BME280;44475;53.206;-6.106;2023-02-15T07:24:36;101611.50;;;22.97;48.00
58698;BME280;44475;53.206;-6.106;2023-02-15T07:27:03;101603.19;;;22.98;47.44
58698;BME280;44475;53.206;-6.106;2023-02-15T07:29:29;101603.56;;;22.94;47.67
58698;BME280;44475;53.206;-6.106;2023-02-15T07:31:55;101601.06;;;22.77;48.09
58698;BME280;44475;53.206;-6.106;2023-02-15T07:34:22;101602.38;;;22.85;47.76
58698;BME280;44475;53.206;-6.106;2023-02-15T07:36:50;101598.09;;;22.94;47.87
58698;BME280;44475;53.206;-6.106;2023-02-15T07:39:17;101594.28;;;22.83;47.80
58698;BME280;44475;53.206;-6.106;2023-02-15T07:41:43;101594.38;;;22.82;48.24
58698;BME280;44475;53.206;-6.106;2023-02-15T07:44:13;101579.19;;;22.91;47.91
58698;BME280;44475;53.206;-6.106;2023-02-15T07:46:39;101577.50;;;23.01;47.82
58698;BME280;44475;53.206;-6.106;2023-02-15T07:49:06;101571.50;;;22.96;47.50
58698;BME280;44475;53.206;-6.106;2023-02-15T07:51:32;101581.59;;;22.82;48.00
58698;BME280;44475;53.206;-6.106;2023-02-15T07:53:58;101575.28;;;23.06;47.28
58698;BME280;44475;53.206;-6.106;2023-02-15T07:56:25;101564.94;;;22.98;47.62
58698;BME280;44475;53.206;-6.106;2023-02-15T07:58:51;101569.75;;;22.95;47.88
58698;BME280;44475;53.206;-6.106;2023-02-15T08:01:26;101582.13;;;22.87;47.88
58698;BME280;44475;53.206;-6.106;2023-02-15T08:03:53;101576.09;;;22.95;47.82
58698;BME280;44475;53.206;-6.106;2023-02-15T08:06:24;101587.72;;;22.73;48.27
58698;BME280;44475;53.206;-6.106;2023-02-15T08:08:50;101584.59;;;23.04;47.30
58698;BME280;44475;53.206;-6.106;2023-02-15T08:11:20;101577.56;;;23.13;47.10
58698;BME280;44475;53.206;-6.106;2023-02-15T08:13:55;101585.00;;;23.11;47.33
58698;BME280;44475;53.206;-6.106;2023-02-15T08:16:38;101590.06;;;23.04;47.26
58698;BME280;44475;53.206;-6.106;2023-02-15T08:21:38;101598.38;;;23.02;47.85
58698;BME280;44475;53.206;-6.106;2023-02-15T08:24:06;101609.75;;;22.96;47.64
58698;BME280;44475;53.206;-6.106;2023-02-15T08:26:33;101603.31;;;22.97;47.82
58698;BME280;44475;53.206;-6.106;2023-02-15T08:29:00;101605.53;;;22.92;47.25
58698;BME280;44475;53.206;-6.106;2023-02-15T08:31:27;101623.47;;;23.07;46.74
58698;BME280;44475;53.206;-6.106;2023-02-15T08:33:55;101621.56;;;22.96;47.02
58698;BME280;44475;53.206;-6.106;2023-02-15T08:36:25;101626.25;;;22.94;47.31
58698;BME280;44475;53.206;-6.106;2023-02-15T08:38:52;101617.94;;;22.96;47.63
58698;BME280;44475;53.206;-6.106;2023-02-15T08:41:21;101625.44;;;23.05;47.33
58698;BME280;44475;53.206;-6.106;2023-02-15T08:43:51;101618.72;;;22.98;47.45
58698;BME280;44475;53.206;-6.106;2023-02-15T08:46:19;101613.19;;;23.11;47.09
58698;BME280;44475;53.206;-6.106;2023-02-15T08:48:45;101610.75;;;23.19;46.92
58698;BME280;44475;53.206;-6.106;2023-02-15T08:51:19;101629.25;;;22.91;47.73
58698;BME280;44475;53.206;-6.106;2023-02-15T08:53:50;101616.63;;;23.02;47.52
58698;BME280;44475;53.206;-6.106;2023-02-15T08:56:18;101612.16;;;23.01;47.67
58698;BME280;44475;53.206;-6.106;2023-02-15T08:58:45;101622.91;;;23.15;47.39
58698;BME280;44475;53.206;-6.106;2023-02-15T09:01:16;101623.94;;;23.26;47.45
58698;BME280;44475;53.206;-6.106;2023-02-15T09:03:45;101624.06;;;23.24;47.59
58698;BME280;44475;53.206;-6.106;2023-02-15T09:06:12;101630.75;;;23.20;47.75
58698;BME280;44475;53.206;-6.106;2023-02-15T09:08:39;101632.22;;;23.13;47.51
58698;BME280;44475;53.206;-6.106;2023-02-15T09:11:08;101644.91;;;23.14;47.39
58698;BME280;44475;53.206;-6.106;2023-02-15T09:13:35;101639.06;;;23.18;46.90
58698;BME280;44475;53.206;-6.106;2023-02-15T09:16:03;101648.50;;;23.14;46.82
58698;BME280;44475;53.206;-6.106;2023-02-15T09:18:31;101656.53;;;23.04;47.22
58698;BME280;44475;53.206;-6.106;2023-02-15T09:21:08;101660.59;;;23.23;46.94
58698;BME280;44475;53.206;-6.106;2023-02-15T09:23:35;101662.34;;;22.99;46.80
58698;BME280;44475;53.206;-6.106;2023-02-15T09:26:04;101668.28;;;23.18;46.07
58698;BME280;44475;53.206;-6.106;2023-02-15T09:28:30;101659.19;;;23.17;46.14
58698;BME280;44475;53.206;-6.106;2023-02-15T09:31:14;101655.16;;;23.23;45.75
58698;BME280;44475;53.206;-6.106;2023-02-15T09:33:42;101663.50;;;23.33;45.49
58698;BME280;44475;53.206;-6.106;2023-02-15T09:36:16;101666.69;;;23.27;46.14
58698;BME280;44475;53.206;-6.106;2023-02-15T09:38:43;101667.94;;;23.23;45.99
58698;BME280;44475;53.206;-6.106;2023-02-15T10:01:39;101685.78;;;23.15;46.22
58698;BME280;44475;53.206;-6.106;2023-02-15T10:07:13;101685.44;;;23.20;46.23
58698;BME280;44475;53.206;-6.106;2023-02-15T10:15:13;101685.50;;;23.32;45.77
58698;BME280;44475;53.206;-6.106;2023-02-15T10:20:45;101663.53;;;22.95;46.14
58698;BME280;44475;53.206;-6.106;2023-02-15T10:26:21;101696.53;;;23.05;46.97
58698;BME280;44475;53.206;-6.106;2023-02-15T10:34:37;101702.75;;;23.07;46.76
58698;BME280;44475;53.206;-6.106;2023-02-15T10:37:30;101705.56;;;23.19;46.41
58698;BME280;44475;53.206;-6.106;2023-02-15T10:56:03;101688.13;;;23.33;46.27
58698;BME280;44475;53.206;-6.106;2023-02-15T11:01:24;101674.34;;;23.35;46.52
58698;BME280;44475;53.206;-6.106;2023-02-15T11:06:41;101682.47;;;23.23;46.41
58698;BME280;44475;53.206;-6.106;2023-02-15T11:09:13;101689.38;;;23.16;46.70
58698;BME280;44475;53.206;-6.106;2023-02-15T11:11:42;101693.53;;;23.46;46.01
58698;BME280;44475;53.206;-6.106;2023-02-15T11:14:30;101699.19;;;23.32;46.11
58698;BME280;44475;53.206;-6.106;2023-02-15T11:17:12;101696.28;;;23.46;45.76
58698;BME280;44475;53.206;-6.106;2023-02-15T11:19:57;101690.31;;;23.28;46.39
58698;BME280;44475;53.206;-6.106;2023-02-15T11:22:26;101700.28;;;23.29;46.67
58698;BME280;44475;53.206;-6.106;2023-02-15T11:24:53;101703.13;;;23.27;46.49
58698;BME280;44475;53.206;-6.106;2023-02-15T11:27:22;101702.78;;;23.32;46.31
58698;BME280;44475;53.206;-6.106;2023-02-15T11:30:02;101697.81;;;23.37;46.22
58698;BME280;44475;53.206;-6.106;2023-02-15T11:32:38;101695.09;;;23.37;46.07
58698;BME280;44475;53.206;-6.106;2023-02-15T11:40:41;101707.38;;;23.32;46.16
58698;BME280;44475;53.206;-6.106;2023-02-15T11:46:08;101698.06;;;23.34;46.21
58698;BME280;44475;53.206;-6.106;2023-02-15T11:48:36;101699.81;;;23.35;46.30
58698;BME280;44475;53.206;-6.106;2023-02-15T11:51:03;101696.44;;;23.32;46.43
58698;BME280;44475;53.206;-6.106;2023-02-15T11:53:33;101697.66;;;23.27;46.31
58698;BME280;44475;53.206;-6.106;2023-02-15T11:56:02;101694.63;;;23.19;46.64
58698;BME280;44475;53.206;-6.106;2023-02-15T12:01:43;101701.63;;;23.23;46.53
58698;BME280;44475;53.206;-6.106;2023-02-15T12:06:57;101703.28;;;23.37;46.06
58698;BME280;44475;53.206;-6.106;2023-02-15T12:09:40;101712.38;;;23.38;45.81
58698;BME280;44475;53.206;-6.106;2023-02-15T12:12:40;101715.97;;;23.38;46.12
58698;BME280;44475;53.206;-6.106;2023-02-15T12:15:11;101713.72;;;23.32;46.00
58698;BME280;44475;53.206;-6.106;2023-02-15T12:17:53;101711.22;;;23.29;46.30
58698;BME280;44475;53.206;-6.106;2023-02-15T12:20:23;101723.56;;;23.35;45.85
58698;BME280;44475;53.206;-6.106;2023-02-15T12:23:17;101724.28;;;23.37;45.81
58698;BME280;44475;53.206;-6.106;2023-02-15T12:25:52;101718.81;;;23.37;45.75
58698;BME280;44475;53.206;-6.106;2023-02-15T12:28:42;101716.84;;;23.39;45.76
58698;BME280;44475;53.206;-6.106;2023-02-15T12:31:32;101702.25;;;23.27;45.96
58698;BME280;44475;53.206;-6.106;2023-02-15T12:34:02;101694.97;;;23.39;45.75
58698;BME280;44475;53.206;-6.106;2023-02-15T12:36:40;101697.38;;;23.44;45.84
58698;BME280;44475;53.206;-6.106;2023-02-15T12:41:43;101699.84;;;23.47;45.67
58698;BME280;44475;53.206;-6.106;2023-02-15T12:44:18;101704.72;;;23.43;45.65
58698;BME280;44475;53.206;-6.106;2023-02-15T12:47:18;101697.72;;;23.39;45.86
58698;BME280;44475;53.206;-6.106;2023-02-15T12:50:04;101705.88;;;23.52;45.31
58698;BME280;44475;53.206;-6.106;2023-02-15T12:52:31;101698.13;;;23.46;45.52
58698;BME280;44475;53.206;-6.106;2023-02-15T12:55:17;101695.09;;;23.37;45.70
58698;BME280;44475;53.206;-6.106;2023-02-15T12:57:44;101697.44;;;23.31;46.16
58698;BME280;44475;53.206;-6.106;2023-02-15T13:02:49;101699.94;;;23.34;45.89
58698;BME280;44475;53.206;-6.106;2023-02-15T13:05:36;101694.97;;;23.39;45.66
58698;BME280;44475;53.206;-6.106;2023-02-15T13:08:16;101704.47;;;23.46;45.67
58698;BME280;44475;53.206;-6.106;2023-02-15T13:11:07;101699.41;;;23.53;45.44
58698;BME280;44475;53.206;-6.106;2023-02-15T13:14:24;101703.28;;;23.37;45.76
58698;BME280;44475;53.206;-6.106;2023-02-15T13:16:53;101696.44;;;23.32;45.92
58698;BME280;44475;53.206;-6.106;2023-02-15T13:19:35;101697.72;;;23.39;45.71
58698;BME280;44475;53.206;-6.106;2023-02-15T13:22:12;101703.53;;;23.34;45.96
58698;BME280;44475;53.206;-6.106;2023-02-15T13:24:44;101693.31;;;23.25;46.02
58698;BME280;44475;53.206;-6.106;2023-02-15T13:27:18;101703.03;;;23.16;46.03
58698;BME280;44475;53.206;-6.106;2023-02-15T13:29:49;101701.84;;;23.20;45.81
58698;BME280;44475;53.206;-6.106;2023-02-15T13:32:38;101696.78;;;23.27;45.69
58698;BME280;44475;53.206;-6.106;2023-02-15T13:35:15;101696.59;;;23.17;45.74
58698;BME280;44475;53.206;-6.106;2023-02-15T13:38:02;101698.41;;;23.29;45.75
58698;BME280;44475;53.206;-6.106;2023-02-15T13:40:45;101688.34;;;23.30;45.73
58698;BME280;44475;53.206;-6.106;2023-02-15T13:43:37;101679.38;;;23.28;45.77
58698;BME280;44475;53.206;-6.106;2023-02-15T13:49:46;101679.09;;;23.44;45.22
58698;BME280;44475;53.206;-6.106;2023-02-15T13:52:38;101681.78;;;23.33;45.74
58698;BME280;44475;53.206;-6.106;2023-02-15T13:55:42;101685.13;;;23.36;45.72
58698;BME280;44475;53.206;-6.106;2023-02-15T14:00:59;101681.78;;;23.33;45.55
58698;BME280;44475;53.206;-6.106;2023-02-15T14:23:26;101677.53;;;23.28;45.71
58698;BME280;44475;53.206;-6.106;2023-02-15T14:26:09;101668.81;;;23.23;45.79
58698;BME280;44475;53.206;-6.106;2023-02-15T14:31:34;101662.63;;;23.33;45.58
58698;BME280;44475;53.206;-6.106;2023-02-15T14:34:03;101669.84;;;23.34;45.86
58698;BME280;44475;53.206;-6.106;2023-02-15T14:36:30;101671.25;;;23.39;45.61
58698;BME280;44475;53.206;-6.106;2023-02-15T14:42:12;101678.56;;;23.39;45.74
58698;BME280;44475;53.206;-6.106;2023-02-15T14:44:49;101677.94;;;23.35;45.67
58698;BME280;44475;53.206;-6.106;2023-02-15T14:47:34;101676.19;;;23.34;45.60
58698;BME280;44475;53.206;-6.106;2023-02-15T14:53:17;101666.03;;;23.48;45.31
58698;BME280;44475;53.206;-6.106;2023-02-15T14:56:02;101678.28;;;23.31;45.91
58698;BME280;44475;53.206;-6.106;2023-02-15T14:58:30;101683.34;;;23.24;45.96
58698;BME280;44475;53.206;-6.106;2023-02-15T15:01:07;101676.75;;;23.26;45.76
58698;BME280;44475;53.206;-6.106;2023-02-15T15:03:35;101675.66;;;23.29;45.94
58698;BME280;44475;53.206;-6.106;2023-02-15T15:06:03;101689.13;;;23.32;45.67
58698;BME280;44475;53.206;-6.106;2023-02-15T15:08:34;101688.00;;;23.35;45.59
58698;BME280;44475;53.206;-6.106;2023-02-15T15:14:00;101690.84;;;23.33;45.74
58698;BME280;44475;53.206;-6.106;2023-02-15T15:18:56;101668.63;;;23.38;45.67
58698;BME280;44475;53.206;-6.106;2023-02-15T15:40:42;101649.25;;;23.41;45.70
58698;BME280;44475;53.206;-6.106;2023-02-15T15:43:36;101647.09;;;23.33;45.68
58698;BME280;44475;53.206;-6.106;2023-02-15T15:49:22;101650.00;;;23.18;46.00
58698;BME280;44475;53.206;-6.106;2023-02-15T15:51:47;101649.47;;;23.38;45.71
58698;BME280;44475;53.206;-6.106;2023-02-15T15:54:23;101653.16;;;23.25;46.12
58698;BME280;44475;53.206;-6.106;2023-02-15T15:57:03;101649.41;;;23.26;46.08
58698;BME280;44475;53.206;-6.106;2023-02-15T15:59:33;101648.09;;;23.32;45.72
58698;BME280;44475;53.206;-6.106;2023-02-15T16:02:09;101645.88;;;23.37;45.58
58698;BME280;44475;53.206;-6.106;2023-02-15T16:04:37;101647.88;;;23.47;45.70
58698;BME280;44475;53.206;-6.106;2023-02-15T16:10:03;101639.13;;;23.30;45.68